METAR Data

Data at: 1842 UTC 21 Nov 2018

METAR for:KMVY (Marthas Vineyard Arp, MA, US)
Text:KMVY 211753Z 24012G19KT 10SM SCT034 OVC070 07/00 A2992 RMK AO2 SLP130 T00670000 10067 20017 57036
Temperature: 6.7°C ( 44°F)
Dewpoint: 0.0°C ( 32°F) [RH = 62%]
Pressure (altimeter):29.92 inches Hg (1013.3 mb) [Sea level pressure: 1013.0 mb]
Winds:from the WSW (240 degrees) at 14 MPH (12 knots; 6.2 m/s) gusting to 22 MPH (19 knots; 9.8 m/s)
Visibility:10 or more sm (16+ km)
Ceiling:7000 feet AGL
Clouds: scattered clouds at 3400 feet AGL, overcast cloud deck at 7000 feet AGL